Time;durP1;ratioP1;P1;durP2;ratioP2;P2;SDS_P1;SDS_P2;PMS_P1;PMS_P2;Temp;Humidity;BMP_temperature;BMP_pressure;BME280_temperature;BME280_humidity;BME280_pressure;Samples;Min_cycle;Max_cycle;Signal;HPM_P1;HPM_P2
2022/02/13 00:00:53;;;;;;;;;;;;;;;0.90;84.51;99389.41;1668290;85;24421;-82
2022/02/13 00:03:20;;;;;;;;;;;;;;;0.94;84.59;99383.77;1692281;84;20534;-82
2022/02/13 00:05:46;;;;;;;;;;;;;;;0.96;84.61;99381.59;1690236;84;24850;-82
2022/02/13 00:08:12;;;;;;;;;;;;;;;0.98;84.68;99377.28;1682673;84;21968;-82
2022/02/13 00:10:39;;;;;;;;;;;;;;;0.98;84.66;99378.56;1690103;84;26091;-82
2022/02/13 00:13:05;;;;;;;;;;;;;;;1.02;84.67;99379.35;1683306;84;25266;-86
2022/02/13 00:15:31;;;;;;;;;;;;;;;1.08;84.74;99376.24;1690882;83;20217;-86
2022/02/13 00:17:57;;;;;;;;;;;;;;;1.09;84.73;99374.05;1687110;84;24601;-87
2022/02/13 00:20:24;;;;;;;;;;;;;;;1.08;84.72;99370.23;1684557;84;22060;-86
2022/02/13 00:22:50;;;;;;;;;;;;;;;1.09;84.71;99367.61;1690663;84;25964;-86
2022/02/13 00:25:16;;;;;;;;;;;;;;;1.01;84.61;99364.33;1685002;84;24594;-86
2022/02/13 00:27:48;;;;;;;;;;;;;;;0.93;84.50;99364.05;1661770;85;20218;-86
2022/02/13 00:30:13;;;;;;;;;;;;;;;0.94;84.50;99370.88;1658663;85;24854;-86
2022/02/13 00:32:40;;;;;;;;;;;;;;;0.93;84.51;99373.07;1660798;85;22059;-83
2022/02/13 00:35:06;;;;;;;;;;;;;;;1.00;84.62;99364.34;1660518;85;26046;-82
2022/02/13 00:37:32;;;;;;;;;;;;;;;1.02;84.69;99364.74;1659804;85;24515;-88
2022/02/13 00:40:03;;;;;;;;;;;;;;;1.02;84.73;99357.02;1658106;85;20249;-87
2022/02/13 00:42:29;;;;;;;;;;;;;;;1.09;84.80;99357.77;1661359;85;25516;-87
2022/02/13 00:44:55;;;;;;;;;;;;;;;1.12;84.86;99351.25;1657952;85;22180;-87
2022/02/13 00:47:24;;;;;;;;;;;;;;;1.08;84.84;99350.91;1659960;85;26044;-88
2022/02/13 00:49:51;;;;;;;;;;;;;;;1.03;84.81;99345.83;1659463;85;24536;-88
2022/02/13 00:52:18;;;;;;;;;;;;;;;1.05;84.84;99346.64;1660488;85;20222;-87
2022/02/13 00:54:45;;;;;;;;;;;;;;;1.06;84.85;99341.05;1659257;86;26248;-88
2022/02/13 00:57:11;;;;;;;;;;;;;;;1.01;84.86;99340.28;1660428;85;22013;-88
2022/02/13 00:59:37;;;;;;;;;;;;;;;1.01;84.84;99341.56;1658527;85;26138;-88
2022/02/13 01:02:04;;;;;;;;;;;;;;;1.04;84.89;99336.34;1656531;85;24510;-82
2022/02/13 01:04:30;;;;;;;;;;;;;;;1.06;84.92;99333.31;1659977;86;20292;-82
2022/02/13 01:06:56;;;;;;;;;;;;;;;1.05;84.92;99328.59;1659132;85;24755;-82
2022/02/13 01:09:22;;;;;;;;;;;;;;;1.04;84.96;99321.73;1657729;85;22033;-84
2022/02/13 01:11:48;;;;;;;;;;;;;;;0.98;84.91;99323.16;1659215;86;26040;-84
2022/02/13 01:14:14;;;;;;;;;;;;;;;0.92;84.87;99313.39;1654839;86;24415;-85
2022/02/13 01:16:40;;;;;;;;;;;;;;;0.98;84.93;99314.14;1661523;86;20835;-86
2022/02/13 01:19:07;;;;;;;;;;;;;;;1.05;85.02;99313.13;1660296;86;25375;-81
2022/02/13 01:21:33;;;;;;;;;;;;;;;1.06;85.04;99310.12;1659617;85;22061;-87
2022/02/13 01:23:59;;;;;;;;;;;;;;;1.09;85.09;99308.80;1661381;86;26051;-82
2022/02/13 01:26:26;;;;;;;;;;;;;;;1.07;85.09;99307.52;1654774;85;24441;-82
2022/02/13 01:28:52;;;;;;;;;;;;;;;1.12;85.13;99303.13;1651831;86;20232;-82
2022/02/13 01:31:19;;;;;;;;;;;;;;;1.14;85.18;99297.52;1618256;86;25354;-82
2022/02/13 01:33:45;;;;;;;;;;;;;;;1.10;85.16;99289.41;1648164;86;22013;-88
2022/02/13 01:36:13;;;;;;;;;;;;;;;1.08;85.12;99286.03;1650810;86;26027;-87
2022/02/13 01:38:39;;;;;;;;;;;;;;;1.09;85.11;99287.70;1651770;86;24511;-88
2022/02/13 01:41:05;;;;;;;;;;;;;;;1.11;85.14;99280.80;1652130;86;20488;-88
2022/02/13 01:43:39;;;;;;;;;;;;;;;1.10;85.15;99276.52;1652472;86;24745;-87
2022/02/13 01:46:09;;;;;;;;;;;;;;;1.09;85.18;99272.70;1650025;86;22642;-88
2022/02/13 01:48:48;;;;;;;;;;;;;;;1.10;85.20;99275.67;1652443;86;26354;-87
2022/02/13 01:51:18;;;;;;;;;;;;;;;1.12;85.25;99279.08;1651097;86;24468;-88
2022/02/13 01:53:44;;;;;;;;;;;;;;;1.10;85.24;99270.52;1652294;86;20349;-87
2022/02/13 01:56:12;;;;;;;;;;;;;;;1.07;85.20;99266.28;1649851;86;24823;-87
2022/02/13 01:58:38;;;;;;;;;;;;;;;1.09;85.20;99262.40;1652206;86;22010;-86
2022/02/13 02:01:05;;;;;;;;;;;;;;;1.09;85.21;99258.53;1651975;86;25961;-86
2022/02/13 02:03:31;;;;;;;;;;;;;;;1.09;85.21;99256.78;1650590;85;24510;-86
2022/02/13 02:05:57;;;;;;;;;;;;;;;1.10;85.23;99253.77;1622094;86;20301;-86
2022/02/13 02:08:23;;;;;;;;;;;;;;;1.08;85.24;99253.81;1640831;86;24747;-86
2022/02/13 02:10:50;;;;;;;;;;;;;;;1.04;85.20;99252.15;1648767;86;22029;-86
2022/02/13 02:13:17;;;;;;;;;;;;;;;0.99;85.13;99247.52;1647840;86;26063;-86
2022/02/13 02:15:46;;;;;;;;;;;;;;;1.02;85.18;99246.19;1652357;86;24489;-88
2022/02/13 02:18:12;;;;;;;;;;;;;;;0.99;85.17;99238.50;1622048;86;20190;-85
2022/02/13 02:20:39;;;;;;;;;;;;;;;1.01;85.19;99240.63;1651803;86;24785;-87
2022/02/13 02:23:05;;;;;;;;;;;;;;;1.01;85.18;99240.63;1652259;86;21965;-87
2022/02/13 02:25:31;;;;;;;;;;;;;;;1.00;85.20;99235.05;1652830;86;26057;-87
2022/02/13 02:27:58;;;;;;;;;;;;;;;1.00;85.19;99232.47;1663841;85;24581;-88
2022/02/13 02:30:25;;;;;;;;;;;;;;;1.01;85.23;99229.46;1666737;85;20251;-87
2022/02/13 02:32:51;;;;;;;;;;;;;;;1.02;85.27;99229.88;1666752;84;24777;-87
2022/02/13 02:35:17;;;;;;;;;;;;;;;1.00;85.27;99229.05;1666425;86;20231;-87
2022/02/13 02:37:43;;;;;;;;;;;;;;;0.96;85.24;99220.53;1666240;85;25955;-85
2022/02/13 02:40:09;;;;;;;;;;;;;;;0.93;85.22;99218.00;1641050;86;24793;-88
2022/02/13 02:42:36;;;;;;;;;;;;;;;0.95;85.23;99214.11;1640045;86;20242;-86
2022/02/13 02:45:03;;;;;;;;;;;;;;;0.95;85.25;99210.24;1665951;85;24799;-82
2022/02/13 02:47:30;;;;;;;;;;;;;;;0.95;85.27;99210.24;1666784;85;21989;-88
2022/02/13 02:49:57;;;;;;;;;;;;;;;0.89;85.23;99207.34;1665217;84;26098;-88
2022/02/13 02:52:23;;;;;;;;;;;;;;;0.87;85.24;99206.55;1665516;86;24439;-84
2022/02/13 02:54:49;;;;;;;;;;;;;;;0.87;85.28;99196.23;1667193;84;20459;-88
2022/02/13 02:57:15;;;;;;;;;;;;;;;0.88;85.29;99200.92;1666816;85;24836;-87
2022/02/13 02:59:42;;;;;;;;;;;;;;;0.88;85.30;99202.20;1664776;86;21960;-87
2022/02/13 03:02:08;;;;;;;;;;;;;;;0.90;85.35;99191.45;1666742;85;26622;-86
2022/02/13 03:04:34;;;;;;;;;;;;;;;0.92;85.42;99189.27;1666440;86;20250;-82
2022/02/13 03:07:00;;;;;;;;;;;;;;;0.94;85.48;99188.78;1666057;84;20231;-86
2022/02/13 03:09:26;;;;;;;;;;;;;;;0.94;85.51;99182.34;1666660;85;24885;-86
2022/02/13 03:11:52;;;;;;;;;;;;;;;0.93;85.55;99186.25;1666438;85;21985;-86
2022/02/13 03:14:18;;;;;;;;;;;;;;;0.90;85.55;99187.58;1642171;86;25981;-86
2022/02/13 03:16:44;;;;;;;;;;;;;;;0.90;85.57;99178.13;1666622;85;24402;-86
2022/02/13 03:19:10;;;;;;;;;;;;;;;0.90;85.59;99173.41;1667559;85;20494;-86
2022/02/13 03:21:36;;;;;;;;;;;;;;;0.89;85.58;99176.86;1666877;85;24724;-85
2022/02/13 03:24:07;;;;;;;;;;;;;;;0.90;85.62;99174.27;1666323;84;22066;-83
2022/02/13 03:26:31;;;;;;;;;;;;;;;0.92;85.67;99162.65;1643735;85;27230;-85
2022/02/13 03:28:57;;;;;;;;;;;;;;;0.93;85.71;99163.88;1672233;85;20282;-85
2022/02/13 03:31:23;;;;;;;;;;;;;;;0.95;85.79;99158.27;1671771;84;20354;-85
2022/02/13 03:33:49;;;;;;;;;;;;;;;0.96;85.83;99152.25;1672996;85;24743;-85
2022/02/13 03:36:15;;;;;;;;;;;;;;;0.98;85.92;99147.07;1676177;85;21959;-86
2022/02/13 03:38:41;;;;;;;;;;;;;;;0.96;85.93;99148.37;1681979;85;25904;-86
2022/02/13 03:41:07;;;;;;;;;;;;;;;0.96;85.94;99144.52;1674311;85;24506;-82
2022/02/13 03:43:34;;;;;;;;;;;;;;;0.94;85.96;99143.69;1669115;85;20272;-82
2022/02/13 03:46:00;;;;;;;;;;;;;;;0.96;85.96;99148.37;1671815;85;25422;-86
2022/02/13 03:48:26;;;;;;;;;;;;;;;0.96;85.96;99147.09;1673291;85;20255;-86
2022/02/13 03:50:52;;;;;;;;;;;;;;;0.94;85.97;99142.39;1674836;83;26143;-86
2022/02/13 03:53:18;;;;;;;;;;;;;;;0.97;86.02;99138.92;1676867;85;25446;-87
2022/02/13 03:55:44;;;;;;;;;;;;;;;0.99;86.06;99139.28;1672438;85;20237;-82
2022/02/13 03:58:10;;;;;;;;;;;;;;;1.00;86.10;99133.26;1674190;85;24882;-82
2022/02/13 04:00:36;;;;;;;;;;;;;;;1.03;86.17;99129.78;1670387;85;22002;-82
2022/02/13 04:03:03;;;;;;;;;;;;;;;1.01;86.16;99133.67;1674602;85;26164;-82
2022/02/13 04:05:29;;;;;;;;;;;;;;;1.01;86.17;99133.67;1675856;85;25256;-82
2022/02/13 04:07:55;;;;;;;;;;;;;;;0.98;86.17;99126.02;1671653;85;20246;-84
2022/02/13 04:10:23;;;;;;;;;;;;;;;1.01;86.21;99126.38;1676292;85;25351;-84
2022/02/13 04:12:49;;;;;;;;;;;;;;;1.02;86.22;99117.77;1677063;85;21981;-85
2022/02/13 04:15:15;;;;;;;;;;;;;;;1.03;86.26;99121.62;1675202;85;26687;-85
2022/02/13 04:17:41;;;;;;;;;;;;;;;1.04;86.30;99115.55;1677256;85;20263;-86
2022/02/13 04:20:08;;;;;;;;;;;;;;;1.02;86.33;99110.89;1670092;85;20217;-82
2022/02/13 04:22:34;;;;;;;;;;;;;;;1.02;86.35;99112.19;1669428;85;24954;-82
2022/02/13 04:25:00;;;;;;;;;;;;;;;1.03;86.39;99111.31;1674511;85;22026;-82
2022/02/13 04:27:26;;;;;;;;;;;;;;;1.09;86.40;99111.63;1672451;85;26021;-82
2022/02/13 04:29:52;;;;;;;;;;;;;;;1.08;86.41;99117.22;1675121;85;20531;-82
2022/02/13 04:32:18;;;;;;;;;;;;;;;1.05;86.41;99110.81;1675888;85;20326;-86
2022/02/13 04:34:47;;;;;;;;;;;;;;;1.10;86.46;99117.16;1671200;85;20274;-87
2022/02/13 04:37:16;;;;;;;;;;;;;;;1.11;86.49;99118.42;1672047;85;22045;-87
2022/02/13 04:39:43;;;;;;;;;;;;;;;1.12;86.53;99113.69;1677579;85;26079;-88
2022/02/13 04:42:10;;;;;;;;;;;;;;;1.08;86.50;99109.92;1677435;85;24413;-87
2022/02/13 04:44:36;;;;;;;;;;;;;;;1.07;86.46;99105.64;1674309;85;20280;-86
2022/02/13 04:47:02;;;;;;;;;;;;;;;1.11;86.50;99104.69;1674703;85;24749;-86
2022/02/13 04:49:28;;;;;;;;;;;;;;;1.10;86.51;99099.97;1673970;85;22007;-86
2022/02/13 04:51:54;;;;;;;;;;;;;;;1.10;86.53;99100.41;1672513;85;26043;-86
2022/02/13 04:54:20;;;;;;;;;;;;;;;1.08;86.53;99096.59;1673878;85;24731;-86
2022/02/13 04:56:46;;;;;;;;;;;;;;;1.07;86.53;99095.33;1680551;85;20470;-82
2022/02/13 04:59:13;;;;;;;;;;;;;;;1.07;86.49;99091.03;1675813;85;24982;-82
2022/02/13 05:01:38;;;;;;;;;;;;;;;1.06;86.46;99092.34;1671049;85;21937;-84
2022/02/13 05:04:04;;;;;;;;;;;;;;;1.03;86.43;99085.54;1674388;85;21800;-82
2022/02/13 05:06:31;;;;;;;;;;;;;;;1.01;86.40;99086.00;1674113;85;24817;-82
2022/02/13 05:08:57;;;;;;;;;;;;;;;1.01;86.37;99086.44;1672547;85;20236;-82
2022/02/13 05:11:23;;;;;;;;;;;;;;;1.00;86.34;99079.58;1677303;85;24708;-82
2022/02/13 05:13:50;;;;;;;;;;;;;;;0.98;86.32;99083.94;1674409;85;22002;-82
2022/02/13 05:16:17;;;;;;;;;;;;;;;0.98;86.29;99081.36;1674381;85;26009;-82
2022/02/13 05:18:43;;;;;;;;;;;;;;;0.98;86.30;99078.78;1678564;85;24716;-82
2022/02/13 05:21:09;;;;;;;;;;;;;;;0.95;86.26;99077.54;1680262;85;20236;-82
2022/02/13 05:23:35;;;;;;;;;;;;;;;0.96;86.27;99074.94;1675353;85;25539;-82
2022/02/13 05:26:02;;;;;;;;;;;;;;;0.96;86.29;99080.09;1676639;85;22114;-82
2022/02/13 05:28:28;;;;;;;;;;;;;;;0.97;86.30;99078.37;1684813;84;26088;-86
2022/02/13 05:30:55;;;;;;;;;;;;;;;0.98;86.34;99079.64;1688752;84;25222;-87
2022/02/13 05:33:27;;;;;;;;;;;;;;;0.94;86.35;99074.11;1691188;84;20411;-87
2022/02/13 05:35:53;;;;;;;;;;;;;;;0.87;86.39;99051.11;1688615;84;25005;-82
2022/02/13 05:38:19;;;;;;;;;;;;;;;0.98;86.45;99071.91;1683549;83;21934;-87
2022/02/13 05:40:45;;;;;;;;;;;;;;;1.00;86.47;99075.27;1688951;84;25950;-88
2022/02/13 05:43:11;;;;;;;;;;;;;;;0.99;86.46;99073.58;1681498;84;24385;-87
2022/02/13 05:45:38;;;;;;;;;;;;;;;0.98;86.48;99066.75;1685569;84;20220;-82
2022/02/13 05:48:04;;;;;;;;;;;;;;;0.94;86.45;99065.53;1686023;84;24812;-82
2022/02/13 05:50:30;;;;;;;;;;;;;;;0.96;86.46;99068.94;1686979;84;22015;-82
2022/02/13 05:52:56;;;;;;;;;;;;;;;0.99;86.48;99061.13;1688976;84;25998;-82
2022/02/13 05:55:23;;;;;;;;;;;;;;;1.01;86.53;99058.09;1690275;84;24469;-82
2022/02/13 05:57:49;;;;;;;;;;;;;;;0.98;86.51;99061.59;1686794;84;20338;-82
2022/02/13 06:00:17;;;;;;;;;;;;;;;0.99;86.50;99059.84;1683009;84;24777;-87
2022/02/13 06:02:44;;;;;;;;;;;;;;;1.01;86.57;99063.24;1682228;84;21954;-88
2022/02/13 06:05:10;;;;;;;;;;;;;;;1.04;86.64;99067.88;1684857;84;25976;-86
2022/02/13 06:07:37;;;;;;;;;;;;;;;1.07;86.68;99059.25;1690142;84;24480;-86
2022/02/13 06:10:03;;;;;;;;;;;;;;;1.00;86.62;99053.38;1684197;84;20478;-86
2022/02/13 06:12:29;;;;;;;;;;;;;;;0.97;86.58;99056.47;1686015;84;25403;-86
2022/02/13 06:14:55;;;;;;;;;;;;;;;0.94;86.53;99052.65;1688625;84;22033;-86
2022/02/13 06:17:21;;;;;;;;;;;;;;;0.95;86.52;99055.64;1684990;84;25949;-86
2022/02/13 06:19:47;;;;;;;;;;;;;;;0.97;86.55;99047.01;1689023;84;24619;-86
2022/02/13 06:22:13;;;;;;;;;;;;;;;1.01;86.62;99049.92;1686811;84;20271;-86
2022/02/13 06:24:39;;;;;;;;;;;;;;;0.99;86.61;99044.38;1687181;84;24805;-86
2022/02/13 06:27:06;;;;;;;;;;;;;;;1.01;86.64;99043.48;1686948;84;22004;-86
2022/02/13 06:29:32;;;;;;;;;;;;;;;1.01;86.64;99049.07;1694409;84;25916;-86
2022/02/13 06:31:59;;;;;;;;;;;;;;;0.99;86.64;99043.94;1690279;84;24559;-86
2022/02/13 06:34:25;;;;;;;;;;;;;;;1.01;86.62;99042.63;1689003;84;20275;-86
2022/02/13 06:36:51;;;;;;;;;;;;;;;1.02;86.63;99041.75;1688404;84;24708;-84
2022/02/13 06:39:17;;;;;;;;;;;;;;;1.02;86.63;99036.59;1689396;84;21924;-86
2022/02/13 06:41:44;;;;;;;;;;;;;;;1.02;86.66;99046.91;1685797;84;25993;-86
2022/02/13 06:44:10;;;;;;;;;;;;;;;1.03;86.67;99041.73;1685121;84;24425;-86
2022/02/13 06:46:36;;;;;;;;;;;;;;;1.01;86.64;99044.77;1689545;84;20251;-86
2022/02/13 06:49:04;;;;;;;;;;;;;;;1.01;86.65;99040.05;1686441;84;24765;-86
2022/02/13 06:51:30;;;;;;;;;;;;;;;0.95;86.65;99038.89;1689017;84;21886;-82
2022/02/13 06:53:59;;;;;;;;;;;;;;;1.02;86.70;99034.88;1689111;84;20986;-84
2022/02/13 06:56:25;;;;;;;;;;;;;;;1.05;86.76;99037.37;1690364;84;24540;-85
2022/02/13 06:58:51;;;;;;;;;;;;;;;1.12;86.84;99036.36;1688961;84;20184;-87
2022/02/13 07:01:17;;;;;;;;;;;;;;;1.17;86.88;99038.39;1689830;84;24732;-86
2022/02/13 07:03:43;;;;;;;;;;;;;;;1.21;86.91;99031.42;1690436;84;21978;-86
2022/02/13 07:06:09;;;;;;;;;;;;;;;1.23;86.94;99034.83;1690356;84;21140;-87
2022/02/13 07:08:35;;;;;;;;;;;;;;;1.25;86.98;99022.76;1688846;84;24739;-87
2022/02/13 07:11:03;;;;;;;;;;;;;;;1.29;87.02;99026.11;1685130;84;20212;-88
2022/02/13 07:13:29;;;;;;;;;;;;;;;1.33;87.06;99018.70;1689907;84;24781;-88
2022/02/13 07:15:58;;;;;;;;;;;;;;;1.35;87.06;99018.23;1678773;84;22011;-82
2022/02/13 07:18:24;;;;;;;;;;;;;;;1.37;87.04;99016.44;1687268;84;21206;-82
2022/02/13 07:20:52;;;;;;;;;;;;;;;1.40;87.03;99017.67;1686632;84;24404;-81
2022/02/13 07:23:23;;;;;;;;;;;;;;;1.44;87.04;99010.27;1687845;84;20172;-86
2022/02/13 07:25:50;;;;;;;;;;;;;;;1.51;87.08;99014.41;1691397;83;24838;-86
2022/02/13 07:31:04;;;;;;;;;;;;;;;1.60;87.10;99009.01;1683378;84;26053;-86
2022/02/13 07:33:30;;;;;;;;;;;;;;;1.67;87.10;99013.14;1690273;84;25128;-88
2022/02/13 07:35:56;;;;;;;;;;;;;;;1.72;87.07;99021.61;1689849;84;20308;-86
2022/02/13 07:38:22;;;;;;;;;;;;;;;1.77;87.02;99015.04;1687416;84;24899;-86
2022/02/13 07:40:48;;;;;;;;;;;;;;;1.81;87.03;99016.20;1689950;84;22030;-87
2022/02/13 07:43:15;;;;;;;;;;;;;;;1.83;86.98;99006.70;1686656;84;25949;-86
2022/02/13 07:45:42;;;;;;;;;;;;;;;1.88;86.96;99011.30;1687515;84;24313;-86
2022/02/13 07:48:09;;;;;;;;;;;;;;;1.95;86.97;99004.25;1692824;84;20481;-86
2022/02/13 07:50:38;;;;;;;;;;;;;;;1.97;86.98;99007.18;1687774;84;24881;-82
2022/02/13 07:53:04;;;;;;;;;;;;;;;2.01;86.94;99004.09;1688416;84;22097;-86
2022/02/13 07:55:32;;;;;;;;;;;;;;;2.07;86.91;99004.75;1683331;84;25996;-82
2022/02/13 07:57:59;;;;;;;;;;;;;;;2.13;86.89;98999.88;1688649;84;24468;-86
2022/02/13 08:00:25;;;;;;;;;;;;;;;2.20;86.88;99000.56;1685003;84;20735;-86
2022/02/13 08:02:51;;;;;;;;;;;;;;;2.24;86.89;98997.84;1708841;83;24983;-85
2022/02/13 08:05:18;;;;;;;;;;;;;;;2.30;86.87;98996.83;1670902;85;20810;-85
2022/02/13 08:07:48;;;;;;;;;;;;;;;2.36;86.83;98997.52;1707002;83;26004;-85
2022/02/13 08:10:14;;;;;;;;;;;;;;;2.40;86.76;99000.88;1706362;83;24420;-82
2022/02/13 08:12:41;;;;;;;;;;;;;;;2.42;86.73;98993.92;1673896;85;20254;-82
2022/02/13 08:15:07;;;;;;;;;;;;;;;2.49;86.65;98996.73;1691969;84;24791;-82
2022/02/13 08:17:33;;;;;;;;;;;;;;;2.57;86.63;98992.63;1670519;85;21962;-87
2022/02/13 08:20:00;;;;;;;;;;;;;;;2.63;86.60;98994.59;1709681;83;26051;-87
2022/02/13 08:22:26;;;;;;;;;;;;;;;2.69;86.55;98991.83;1698412;83;24564;-82
2022/02/13 08:24:52;;;;;;;;;;;;;;;2.72;86.44;98990.91;1699772;83;20214;-82
2022/02/13 08:27:18;;;;;;;;;;;;;;;2.76;86.32;98985.61;1710631;82;24742;-82
2022/02/13 08:32:19;;;;;;;;;;;;;;;2.90;86.14;98985.17;1698846;83;26843;-83
2022/02/13 08:34:45;;;;;;;;;;;;;;;2.98;86.01;98987.09;1709264;83;24516;-84
2022/02/13 08:37:14;;;;;;;;;;;;;;;3.08;85.96;98985.06;1708550;83;20472;-85
2022/02/13 08:39:40;;;;;;;;;;;;;;;3.17;85.87;98991.23;1702207;83;24967;-85
2022/02/13 08:42:07;;;;;;;;;;;;;;;3.24;85.78;98982.40;1708271;83;22026;-83
2022/02/13 08:44:33;;;;;;;;;;;;;;;3.30;85.64;98987.38;1660345;86;26659;-85
2022/02/13 08:46:59;;;;;;;;;;;;;;;3.38;85.50;98983.64;1668459;86;24496;-85
2022/02/13 08:49:26;;;;;;;;;;;;;;;3.45;85.32;98983.45;1663201;86;20271;-88
2022/02/13 08:51:52;;;;;;;;;;;;;;;3.55;85.21;98991.30;1710053;83;24708;-83
2022/02/13 08:54:21;;;;;;;;;;;;;;;3.64;85.07;98989.73;1706232;83;21894;-88
2022/02/13 08:56:48;;;;;;;;;;;;;;;3.71;84.94;98976.96;1666236;85;26082;-88
2022/02/13 08:59:15;;;;;;;;;;;;;;;3.81;84.80;98982.25;1659817;86;24424;-85
2022/02/13 09:01:43;;;;;;;;;;;;;;;3.88;84.60;98970.77;1693597;83;20197;-85
2022/02/13 09:04:09;;;;;;;;;;;;;;;3.94;84.38;98969.71;1706009;83;24849;-85
2022/02/13 09:06:41;;;;;;;;;;;;;;;3.99;84.18;98978.16;1705034;83;22051;-89
2022/02/13 09:09:09;;;;;;;;;;;;;;;4.03;83.99;98968.12;1702890;83;26150;-85
2022/02/13 09:11:36;;;;;;;;;;;;;;;4.15;83.84;98967.66;1703447;83;24662;-85
2022/02/13 09:14:04;;;;;;;;;;;;;;;4.25;83.72;98967.76;1666590;84;20481;-85
2022/02/13 09:16:33;;;;;;;;;;;;;;;4.33;83.65;98974.79;1663643;85;24867;-87
2022/02/13 09:18:59;;;;;;;;;;;;;;;4.40;83.54;98968.94;1697064;84;22017;-87
2022/02/13 09:21:25;;;;;;;;;;;;;;;4.46;83.42;98970.02;1677641;85;25989;-87
2022/02/13 09:23:51;;;;;;;;;;;;;;;4.59;83.28;98964.30;1675491;85;24513;-88
2022/02/13 09:26:17;;;;;;;;;;;;;;;4.69;83.10;98968.69;1676424;85;20331;-85
2022/02/13 09:28:45;;;;;;;;;;;;;;;4.74;82.87;98968.09;1670460;85;20302;-83
2022/02/13 09:31:11;;;;;;;;;;;;;;;4.82;82.64;98966.48;1681768;85;21771;-83
2022/02/13 09:33:37;;;;;;;;;;;;;;;4.86;82.36;98964.16;1681851;85;26668;-83
2022/02/13 09:36:03;;;;;;;;;;;;;;;4.92;82.09;98964.78;1678854;85;24487;-88
2022/02/13 09:38:35;;;;;;;;;;;;;;;5.05;81.88;98967.75;1679812;85;20234;-89
2022/02/13 09:41:02;;;;;;;;;;;;;;;5.16;81.67;98951.31;1687214;85;24826;-86
2022/02/13 09:43:28;;;;;;;;;;;;;;;5.24;81.27;98955.73;1683539;84;22011;-87
2022/02/13 09:45:54;;;;;;;;;;;;;;;5.33;80.87;98957.97;1681748;85;26167;-87
2022/02/13 09:48:22;;;;;;;;;;;;;;;5.37;80.45;98949.15;1684377;85;24512;-87
2022/02/13 09:50:55;;;;;;;;;;;;;;;5.46;79.95;98955.25;1683639;85;20178;-85
2022/02/13 09:53:21;;;;;;;;;;;;;;;5.52;79.37;98955.91;1683081;84;24800;-86
2022/02/13 09:55:47;;;;;;;;;;;;;;;5.56;78.95;98951.00;1683447;85;21934;-85
2022/02/13 09:58:14;;;;;;;;;;;;;;;5.58;78.63;98956.50;1683361;84;26193;-82
2022/02/13 10:00:57;;;;;;;;;;;;;;;5.67;78.37;98955.30;1679873;85;24555;-87
2022/02/13 10:03:27;;;;;;;;;;;;;;;5.73;78.16;98955.86;1686629;84;20338;-89
2022/02/13 10:05:55;;;;;;;;;;;;;;;5.79;77.91;98958.20;1685575;85;24762;-88
2022/02/13 10:08:32;;;;;;;;;;;;;;;5.83;77.68;98954.59;1681858;84;22653;-88
2022/02/13 10:11:20;;;;;;;;;;;;;;;5.89;77.41;98950.44;1679457;84;26011;-88
2022/02/13 10:13:57;;;;;;;;;;;;;;;5.97;77.13;98950.13;1683371;84;24524;-84
2022/02/13 10:16:24;;;;;;;;;;;;;;;6.03;76.91;98943.81;1677590;85;20225;-83
2022/02/13 10:18:54;;;;;;;;;;;;;;;6.09;76.59;98944.41;1680672;84;25553;-83
2022/02/13 10:21:30;;;;;;;;;;;;;;;6.10;76.33;98942.20;1685080;84;22800;-83
2022/02/13 10:24:01;;;;;;;;;;;;;;;6.12;76.04;98939.06;1682341;85;26084;-86
2022/02/13 10:26:27;;;;;;;;;;;;;;;6.16;75.79;98932.84;1683013;85;24679;-87
2022/02/13 10:28:54;;;;;;;;;;;;;;;6.22;75.58;98935.59;1682905;85;20414;-87
2022/02/13 10:31:21;;;;;;;;;;;;;;;6.29;75.44;98937.86;1672037;85;24868;-87
2022/02/13 10:33:49;;;;;;;;;;;;;;;6.36;75.31;98928.04;1670173;85;21588;-87
2022/02/13 10:36:15;;;;;;;;;;;;;;;6.41;75.16;98920.03;1673059;85;26001;-83
2022/02/13 10:38:43;;;;;;;;;;;;;;;6.45;75.00;98918.97;1679798;85;24406;-88
2022/02/13 10:41:27;;;;;;;;;;;;;;;6.47;74.83;98921.06;1672690;85;20236;-89
2022/02/13 10:44:01;;;;;;;;;;;;;;;6.50;74.61;98898.80;1673272;85;25532;-89
2022/02/13 10:46:31;;;;;;;;;;;;;;;6.47;74.25;98906.76;1674260;85;22815;-88
2022/02/13 10:49:00;;;;;;;;;;;;;;;6.51;73.99;98905.70;1672301;85;25473;-87
2022/02/13 10:51:30;;;;;;;;;;;;;;;6.55;73.72;98895.08;1661686;85;24405;-87
2022/02/13 10:53:56;;;;;;;;;;;;;;;6.60;73.52;98884.49;1671472;85;20301;-83
2022/02/13 10:56:23;;;;;;;;;;;;;;;6.66;73.25;98883.72;1664000;85;24730;-87
2022/02/13 10:58:50;;;;;;;;;;;;;;;6.67;72.91;98880.22;1669798;85;22790;-87
2022/02/13 11:01:18;;;;;;;;;;;;;;;6.67;72.70;98875.47;1666320;85;26087;-87
2022/02/13 11:03:48;;;;;;;;;;;;;;;6.67;72.51;98877.61;1665543;85;24650;-87
2022/02/13 11:06:16;;;;;;;;;;;;;;;6.72;72.23;98866.98;1671335;85;20356;-89
2022/02/13 11:08:47;;;;;;;;;;;;;;;6.75;71.98;98864.26;1677943;85;24826;-86
2022/02/13 11:11:14;;;;;;;;;;;;;;;6.77;71.77;98863.70;1649566;85;37539;-83
2022/02/13 11:13:41;;;;;;;;;;;;;;;6.78;71.50;98860.66;1679032;85;26072;-83
2022/02/13 11:16:25;;;;;;;;;;;;;;;6.75;71.16;98861.66;1676778;85;24433;-83
2022/02/13 11:18:53;;;;;;;;;;;;;;;6.80;70.92;98844.53;1676656;85;20371;-83
2022/02/13 11:21:22;;;;;;;;;;;;;;;6.85;70.65;98846.45;1670667;85;25513;-83
2022/02/13 11:23:52;;;;;;;;;;;;;;;6.91;70.42;98847.45;1669859;85;22826;-87
2022/02/13 11:26:20;;;;;;;;;;;;;;;6.98;70.25;98843.16;1674613;83;26097;-87
2022/02/13 11:28:55;;;;;;;;;;;;;;;7.03;70.12;98836.45;1676282;84;24469;-87
2022/02/13 11:31:40;;;;;;;;;;;;;;;7.08;70.04;98837.07;1681733;84;20640;-83
2022/02/13 11:34:09;;;;;;;;;;;;;;;7.15;69.90;98843.18;1685530;85;24877;-87
2022/02/13 11:36:50;;;;;;;;;;;;;;;7.22;69.65;98832.47;1707399;83;22097;-85
2022/02/13 11:39:33;;;;;;;;;;;;;;;7.24;69.36;98824.98;1672589;85;26825;-86
2022/02/13 11:42:00;;;;;;;;;;;;;;;7.24;69.05;98817.63;1672949;85;25289;-83
2022/02/13 11:44:33;;;;;;;;;;;;;;;7.29;68.87;98811.73;1674086;84;20624;-89
2022/02/13 11:46:59;;;;;;;;;;;;;;;7.33;68.66;98811.48;1670633;84;24914;-89
2022/02/13 11:49:26;;;;;;;;;;;;;;;7.41;68.52;98815.02;1679675;84;22167;-89
2022/02/13 11:51:56;;;;;;;;;;;;;;;7.46;68.34;98807.81;1667987;85;26027;-83
2022/02/13 11:54:47;;;;;;;;;;;;;;;7.44;68.07;98803.13;1694045;84;24432;-83
2022/02/13 11:57:19;;;;;;;;;;;;;;;7.44;67.84;98800.07;1670614;85;20168;-83
2022/02/13 11:59:53;;;;;;;;;;;;;;;7.46;67.64;98797.39;1698395;83;24761;-83
2022/02/13 12:02:27;;;;;;;;;;;;;;;7.53;67.54;98794.83;1696356;84;22075;-83
2022/02/13 12:05:07;;;;;;;;;;;;;;;7.61;67.45;98787.48;1652007;85;26096;-83
2022/02/13 12:07:34;;;;;;;;;;;;;;;7.63;67.36;98788.25;1696254;84;25102;-83
2022/02/13 12:10:03;;;;;;;;;;;;;;;7.61;67.16;98792.69;1695026;84;20298;-88
2022/02/13 12:12:30;;;;;;;;;;;;;;;7.63;66.96;98783.50;1696308;84;24907;-87
2022/02/13 12:14:56;;;;;;;;;;;;;;;7.65;66.69;98780.34;1694682;83;21966;-88
2022/02/13 12:17:34;;;;;;;;;;;;;;;7.70;66.47;98780.94;1697367;83;26019;-89
2022/02/13 12:20:01;;;;;;;;;;;;;;;7.75;66.28;98772.41;1693670;83;24459;-85
2022/02/13 12:22:27;;;;;;;;;;;;;;;7.81;66.11;98776.84;1706957;82;20295;-85
2022/02/13 12:24:55;;;;;;;;;;;;;;;7.82;65.83;98766.80;1694781;84;24785;-85
2022/02/13 12:27:22;;;;;;;;;;;;;;;7.82;65.39;98765.97;1696972;83;22065;-85
2022/02/13 12:29:50;;;;;;;;;;;;;;;7.81;64.94;98766.87;1693120;84;25417;-85
2022/02/13 12:32:17;;;;;;;;;;;;;;;7.81;64.68;98766.42;1655681;85;23930;-85
2022/02/13 12:34:49;;;;;;;;;;;;;;;7.89;64.45;98760.81;1663257;85;20217;-84
2022/02/13 12:37:15;;;;;;;;;;;;;;;7.95;64.04;98761.33;1658251;85;24983;-85
2022/02/13 12:39:43;;;;;;;;;;;;;;;7.94;63.65;98752.28;1647862;86;22080;-85
2022/02/13 12:42:09;;;;;;;;;;;;;;;7.93;63.45;98746.69;1669844;85;26062;-85
2022/02/13 12:44:56;;;;;;;;;;;;;;;7.92;63.37;98754.97;1670411;85;24498;-85
2022/02/13 12:47:33;;;;;;;;;;;;;;;7.86;63.16;98745.33;1643745;86;20237;-85
2022/02/13 12:50:00;;;;;;;;;;;;;;;7.81;62.98;98740.37;1646834;85;25385;-84
2022/02/13 12:52:26;;;;;;;;;;;;;;;7.83;62.77;98732.02;1659883;85;21917;-84
2022/02/13 12:54:52;;;;;;;;;;;;;;;7.83;62.53;98737.23;1662692;85;26147;-84
2022/02/13 12:57:26;;;;;;;;;;;;;;;7.88;62.35;98740.42;1652363;86;25099;-85
2022/02/13 12:59:54;;;;;;;;;;;;;;;7.90;62.24;98729.93;1637575;86;20329;-85
2022/02/13 13:02:24;;;;;;;;;;;;;;;7.85;62.03;98734.55;1650317;86;24746;-85
2022/02/13 13:04:50;;;;;;;;;;;;;;;7.92;62.04;98728.06;1680863;84;21972;-84